sensor_id;sensor_type;location;lat;lon;timestamp;P1;durP1;ratioP1;P2;durP2;ratioP2
22606;SDS011;11470;20.968;105.834;2024-02-23T00:03:37;101.90;;;61.55;;
22606;SDS011;11470;20.968;105.834;2024-02-23T00:08:43;106.80;;;60.17;;
22606;SDS011;11470;20.968;105.834;2024-02-23T00:13:48;114.00;;;65.20;;
22606;SDS011;11470;20.968;105.834;2024-02-23T00:18:53;98.03;;;60.17;;
22606;SDS011;11470;20.968;105.834;2024-02-23T00:23:58;118.25;;;71.15;;
22606;SDS011;11470;20.968;105.834;2024-02-23T00:29:04;108.97;;;68.15;;
22606;SDS011;11470;20.968;105.834;2024-02-23T00:34:08;98.53;;;55.78;;
22606;SDS011;11470;20.968;105.834;2024-02-23T00:39:14;102.17;;;64.20;;
22606;SDS011;11470;20.968;105.834;2024-02-23T00:44:19;107.32;;;63.85;;
22606;SDS011;11470;20.968;105.834;2024-02-23T00:49:25;99.20;;;62.10;;
22606;SDS011;11470;20.968;105.834;2024-02-23T00:54:30;94.07;;;60.10;;
22606;SDS011;11470;20.968;105.834;2024-02-23T00:59:34;101.18;;;62.40;;
22606;SDS011;11470;20.968;105.834;2024-02-23T01:04:40;111.07;;;64.22;;
22606;SDS011;11470;20.968;105.834;2024-02-23T01:09:44;96.50;;;61.85;;
22606;SDS011;11470;20.968;105.834;2024-02-23T01:14:49;92.97;;;54.47;;
22606;SDS011;11470;20.968;105.834;2024-02-23T01:19:54;101.90;;;63.15;;
22606;SDS011;11470;20.968;105.834;2024-02-23T01:24:59;93.95;;;55.65;;
22606;SDS011;11470;20.968;105.834;2024-02-23T01:30:07;93.72;;;56.30;;
22606;SDS011;11470;20.968;105.834;2024-02-23T01:35:12;91.57;;;56.42;;
22606;SDS011;11470;20.968;105.834;2024-02-23T01:40:17;101.88;;;58.80;;
22606;SDS011;11470;20.968;105.834;2024-02-23T01:45:23;99.53;;;62.58;;
22606;SDS011;11470;20.968;105.834;2024-02-23T01:50:27;88.80;;;54.95;;
22606;SDS011;11470;20.968;105.834;2024-02-23T01:55:34;90.85;;;53.30;;
22606;SDS011;11470;20.968;105.834;2024-02-23T02:00:40;106.95;;;65.95;;
22606;SDS011;11470;20.968;105.834;2024-02-23T02:05:45;89.32;;;55.70;;
22606;SDS011;11470;20.968;105.834;2024-02-23T02:10:50;82.23;;;52.20;;
22606;SDS011;11470;20.968;105.834;2024-02-23T02:16:00;92.67;;;57.63;;
22606;SDS011;11470;20.968;105.834;2024-02-23T02:21:06;87.40;;;53.35;;
22606;SDS011;11470;20.968;105.834;2024-02-23T02:26:11;74.13;;;36.47;;
22606;SDS011;11470;20.968;105.834;2024-02-23T02:31:16;88.55;;;52.42;;
22606;SDS011;11470;20.968;105.834;2024-02-23T02:36:21;95.10;;;53.37;;
22606;SDS011;11470;20.968;105.834;2024-02-23T02:41:27;105.97;;;61.22;;
22606;SDS011;11470;20.968;105.834;2024-02-23T02:46:34;78.38;;;50.15;;
22606;SDS011;11470;20.968;105.834;2024-02-23T02:51:40;87.25;;;53.28;;
22606;SDS011;11470;20.968;105.834;2024-02-23T02:56:47;87.03;;;53.53;;
22606;SDS011;11470;20.968;105.834;2024-02-23T03:01:54;85.35;;;57.33;;
22606;SDS011;11470;20.968;105.834;2024-02-23T03:07:01;76.20;;;51.88;;
22606;SDS011;11470;20.968;105.834;2024-02-23T03:12:06;75.53;;;49.07;;
22606;SDS011;11470;20.968;105.834;2024-02-23T03:17:11;77.73;;;48.50;;
22606;SDS011;11470;20.968;105.834;2024-02-23T03:22:16;80.03;;;50.28;;
22606;SDS011;11470;20.968;105.834;2024-02-23T03:27:27;68.80;;;45.83;;
22606;SDS011;11470;20.968;105.834;2024-02-23T03:32:33;69.88;;;45.47;;
22606;SDS011;11470;20.968;105.834;2024-02-23T03:37:42;70.57;;;46.08;;
22606;SDS011;11470;20.968;105.834;2024-02-23T03:42:48;75.97;;;49.47;;
22606;SDS011;11470;20.968;105.834;2024-02-23T03:47:53;71.93;;;46.88;;
22606;SDS011;11470;20.968;105.834;2024-02-23T03:52:58;74.32;;;51.42;;
22606;SDS011;11470;20.968;105.834;2024-02-23T03:58:03;66.77;;;47.47;;
22606;SDS011;11470;20.968;105.834;2024-02-23T04:03:08;72.10;;;49.10;;
22606;SDS011;11470;20.968;105.834;2024-02-23T04:08:13;60.05;;;40.05;;
22606;SDS011;11470;20.968;105.834;2024-02-23T04:13:18;63.83;;;41.65;;
22606;SDS011;11470;20.968;105.834;2024-02-23T04:18:23;62.40;;;42.67;;
22606;SDS011;11470;20.968;105.834;2024-02-23T04:23:29;73.03;;;49.23;;
22606;SDS011;11470;20.968;105.834;2024-02-23T04:28:37;62.88;;;41.70;;
22606;SDS011;11470;20.968;105.834;2024-02-23T04:33:43;64.68;;;36.53;;
22606;SDS011;11470;20.968;105.834;2024-02-23T04:38:48;60.72;;;37.67;;
22606;SDS011;11470;20.968;105.834;2024-02-23T04:43:53;60.22;;;39.47;;
22606;SDS011;11470;20.968;105.834;2024-02-23T04:49:04;67.00;;;43.08;;
22606;SDS011;11470;20.968;105.834;2024-02-23T04:54:10;56.93;;;34.17;;
22606;SDS011;11470;20.968;105.834;2024-02-23T04:59:14;64.47;;;39.50;;
22606;SDS011;11470;20.968;105.834;2024-02-23T05:04:20;62.53;;;40.58;;
22606;SDS011;11470;20.968;105.834;2024-02-23T05:09:24;59.20;;;36.53;;
22606;SDS011;11470;20.968;105.834;2024-02-23T05:14:29;52.38;;;33.50;;
22606;SDS011;11470;20.968;105.834;2024-02-23T05:19:34;59.58;;;38.50;;
22606;SDS011;11470;20.968;105.834;2024-02-23T05:24:40;59.47;;;32.88;;
22606;SDS011;11470;20.968;105.834;2024-02-23T05:29:46;57.80;;;38.40;;
22606;SDS011;11470;20.968;105.834;2024-02-23T05:34:51;53.22;;;34.13;;
22606;SDS011;11470;20.968;105.834;2024-02-23T05:39:57;58.92;;;39.50;;
22606;SDS011;11470;20.968;105.834;2024-02-23T05:45:10;57.08;;;38.75;;
22606;SDS011;11470;20.968;105.834;2024-02-23T05:50:15;56.87;;;32.37;;
22606;SDS011;11470;20.968;105.834;2024-02-23T05:55:20;55.23;;;36.50;;
22606;SDS011;11470;20.968;105.834;2024-02-23T06:00:25;51.63;;;32.63;;
22606;SDS011;11470;20.968;105.834;2024-02-23T06:05:30;53.92;;;36.03;;
22606;SDS011;11470;20.968;105.834;2024-02-23T06:10:35;54.60;;;34.80;;
22606;SDS011;11470;20.968;105.834;2024-02-23T06:15:41;57.42;;;29.45;;
22606;SDS011;11470;20.968;105.834;2024-02-23T06:20:48;62.83;;;37.38;;
22606;SDS011;11470;20.968;105.834;2024-02-23T06:25:53;68.55;;;37.80;;
22606;SDS011;11470;20.968;105.834;2024-02-23T06:30:58;69.35;;;36.58;;
22606;SDS011;11470;20.968;105.834;2024-02-23T06:36:04;70.95;;;38.42;;
22606;SDS011;11470;20.968;105.834;2024-02-23T06:41:09;54.33;;;31.67;;
22606;SDS011;11470;20.968;105.834;2024-02-23T06:46:15;55.63;;;31.85;;
22606;SDS011;11470;20.968;105.834;2024-02-23T06:51:26;53.53;;;29.60;;
22606;SDS011;11470;20.968;105.834;2024-02-23T06:56:31;46.95;;;29.70;;
22606;SDS011;11470;20.968;105.834;2024-02-23T07:01:47;44.35;;;28.35;;
22606;SDS011;11470;20.968;105.834;2024-02-23T07:06:53;37.60;;;26.00;;
22606;SDS011;11470;20.968;105.834;2024-02-23T07:11:59;37.80;;;22.70;;
22606;SDS011;11470;20.968;105.834;2024-02-23T07:17:04;51.97;;;28.52;;
22606;SDS011;11470;20.968;105.834;2024-02-23T07:22:09;56.58;;;27.90;;
22606;SDS011;11470;20.968;105.834;2024-02-23T07:27:15;52.50;;;28.53;;
22606;SDS011;11470;20.968;105.834;2024-02-23T07:32:20;45.28;;;26.02;;
22606;SDS011;11470;20.968;105.834;2024-02-23T07:37:28;44.80;;;25.65;;
22606;SDS011;11470;20.968;105.834;2024-02-23T07:42:33;43.88;;;28.08;;
22606;SDS011;11470;20.968;105.834;2024-02-23T07:47:41;39.10;;;22.77;;
22606;SDS011;11470;20.968;105.834;2024-02-23T07:52:46;40.40;;;29.25;;
22606;SDS011;11470;20.968;105.834;2024-02-23T08:03:01;42.58;;;28.48;;
22606;SDS011;11470;20.968;105.834;2024-02-23T08:08:06;38.55;;;25.95;;
22606;SDS011;11470;20.968;105.834;2024-02-23T08:13:11;36.20;;;24.13;;
22606;SDS011;11470;20.968;105.834;2024-02-23T08:18:17;31.58;;;22.30;;
22606;SDS011;11470;20.968;105.834;2024-02-23T08:23:24;37.25;;;27.65;;
22606;SDS011;11470;20.968;105.834;2024-02-23T08:28:30;31.23;;;21.90;;
22606;SDS011;11470;20.968;105.834;2024-02-23T08:33:35;29.60;;;21.47;;
22606;SDS011;11470;20.968;105.834;2024-02-23T08:38:41;36.38;;;25.08;;
22606;SDS011;11470;20.968;105.834;2024-02-23T08:43:46;35.23;;;23.67;;
22606;SDS011;11470;20.968;105.834;2024-02-23T08:48:54;30.95;;;22.10;;
22606;SDS011;11470;20.968;105.834;2024-02-23T08:53:59;43.47;;;35.47;;
22606;SDS011;11470;20.968;105.834;2024-02-23T08:59:09;39.22;;;31.13;;
22606;SDS011;11470;20.968;105.834;2024-02-23T09:04:14;39.72;;;31.50;;
22606;SDS011;11470;20.968;105.834;2024-02-23T09:09:19;37.90;;;26.33;;
22606;SDS011;11470;20.968;105.834;2024-02-23T09:14:25;42.43;;;30.30;;
22606;SDS011;11470;20.968;105.834;2024-02-23T09:19:30;51.70;;;39.17;;
22606;SDS011;11470;20.968;105.834;2024-02-23T09:24:38;43.03;;;34.27;;
22606;SDS011;11470;20.968;105.834;2024-02-23T09:29:47;50.35;;;38.03;;
22606;SDS011;11470;20.968;105.834;2024-02-23T09:34:52;38.50;;;29.00;;
22606;SDS011;11470;20.968;105.834;2024-02-23T09:39:57;42.22;;;33.75;;
22606;SDS011;11470;20.968;105.834;2024-02-23T09:45:04;46.63;;;36.35;;
22606;SDS011;11470;20.968;105.834;2024-02-23T09:50:10;37.83;;;28.90;;
22606;SDS011;11470;20.968;105.834;2024-02-23T09:55:17;43.80;;;34.10;;
22606;SDS011;11470;20.968;105.834;2024-02-23T10:00:24;42.20;;;32.33;;
22606;SDS011;11470;20.968;105.834;2024-02-23T10:10:45;40.47;;;30.70;;
22606;SDS011;11470;20.968;105.834;2024-02-23T10:15:54;45.47;;;34.00;;
22606;SDS011;11470;20.968;105.834;2024-02-23T10:21:16;42.88;;;33.85;;
22606;SDS011;11470;20.968;105.834;2024-02-23T10:26:21;44.17;;;34.17;;
22606;SDS011;11470;20.968;105.834;2024-02-23T10:31:26;46.73;;;29.57;;
22606;SDS011;11470;20.968;105.834;2024-02-23T10:36:32;53.07;;;41.90;;
22606;SDS011;11470;20.968;105.834;2024-02-23T10:41:37;44.50;;;30.57;;
22606;SDS011;11470;20.968;105.834;2024-02-23T10:46:44;49.88;;;36.90;;
22606;SDS011;11470;20.968;105.834;2024-02-23T10:51:49;55.17;;;40.97;;
22606;SDS011;11470;20.968;105.834;2024-02-23T10:56:55;59.20;;;46.80;;
22606;SDS011;11470;20.968;105.834;2024-02-23T11:02:00;54.20;;;41.53;;
22606;SDS011;11470;20.968;105.834;2024-02-23T11:07:12;40.57;;;27.93;;
22606;SDS011;11470;20.968;105.834;2024-02-23T11:12:24;56.63;;;41.92;;
22606;SDS011;11470;20.968;105.834;2024-02-23T11:17:34;49.38;;;36.45;;
22606;SDS011;11470;20.968;105.834;2024-02-23T11:22:43;50.33;;;36.55;;
22606;SDS011;11470;20.968;105.834;2024-02-23T11:27:51;39.47;;;26.02;;
22606;SDS011;11470;20.968;105.834;2024-02-23T11:32:58;48.60;;;36.50;;
22606;SDS011;11470;20.968;105.834;2024-02-23T11:38:04;57.88;;;43.08;;
22606;SDS011;11470;20.968;105.834;2024-02-23T11:43:11;50.35;;;36.05;;
22606;SDS011;11470;20.968;105.834;2024-02-23T11:48:17;50.60;;;35.50;;
22606;SDS011;11470;20.968;105.834;2024-02-23T11:53:26;46.58;;;34.33;;
22606;SDS011;11470;20.968;105.834;2024-02-23T11:58:31;43.95;;;32.92;;
22606;SDS011;11470;20.968;105.834;2024-02-23T12:03:37;43.75;;;30.48;;
22606;SDS011;11470;20.968;105.834;2024-02-23T12:08:42;46.60;;;34.05;;
22606;SDS011;11470;20.968;105.834;2024-02-23T12:13:49;50.10;;;37.13;;
22606;SDS011;11470;20.968;105.834;2024-02-23T12:18:55;37.97;;;28.65;;
22606;SDS011;11470;20.968;105.834;2024-02-23T12:24:03;40.50;;;30.88;;
22606;SDS011;11470;20.968;105.834;2024-02-23T12:29:11;41.25;;;30.80;;
22606;SDS011;11470;20.968;105.834;2024-02-23T12:34:16;39.93;;;29.87;;
22606;SDS011;11470;20.968;105.834;2024-02-23T12:39:24;41.30;;;28.70;;
22606;SDS011;11470;20.968;105.834;2024-02-23T12:44:30;41.50;;;26.83;;
22606;SDS011;11470;20.968;105.834;2024-02-23T12:49:35;40.10;;;30.37;;
22606;SDS011;11470;20.968;105.834;2024-02-23T12:54:42;35.85;;;25.90;;
22606;SDS011;11470;20.968;105.834;2024-02-23T13:04:53;33.83;;;25.80;;
22606;SDS011;11470;20.968;105.834;2024-02-23T13:09:59;24.77;;;16.15;;
22606;SDS011;11470;20.968;105.834;2024-02-23T13:15:04;25.50;;;16.80;;
22606;SDS011;11470;20.968;105.834;2024-02-23T13:20:10;34.30;;;22.27;;
22606;SDS011;11470;20.968;105.834;2024-02-23T13:25:16;39.13;;;28.40;;
22606;SDS011;11470;20.968;105.834;2024-02-23T13:30:21;35.67;;;27.13;;
22606;SDS011;11470;20.968;105.834;2024-02-23T13:35:26;31.40;;;23.25;;
22606;SDS011;11470;20.968;105.834;2024-02-23T13:40:32;33.37;;;24.03;;
22606;SDS011;11470;20.968;105.834;2024-02-23T13:45:50;32.90;;;25.77;;
22606;SDS011;11470;20.968;105.834;2024-02-23T13:50:56;34.00;;;23.50;;
22606;SDS011;11470;20.968;105.834;2024-02-23T13:56:06;37.03;;;24.80;;
22606;SDS011;11470;20.968;105.834;2024-02-23T14:01:11;32.78;;;22.40;;
22606;SDS011;11470;20.968;105.834;2024-02-23T14:06:16;25.40;;;17.98;;
22606;SDS011;11470;20.968;105.834;2024-02-23T14:11:21;28.25;;;14.52;;
22606;SDS011;11470;20.968;105.834;2024-02-23T14:16:26;31.50;;;22.13;;
22606;SDS011;11470;20.968;105.834;2024-02-23T14:21:31;27.00;;;18.73;;
22606;SDS011;11470;20.968;105.834;2024-02-23T14:26:36;25.55;;;19.30;;
22606;SDS011;11470;20.968;105.834;2024-02-23T14:31:41;25.67;;;17.23;;
22606;SDS011;11470;20.968;105.834;2024-02-23T14:36:46;34.60;;;24.10;;
22606;SDS011;11470;20.968;105.834;2024-02-23T14:41:51;22.88;;;13.13;;
22606;SDS011;11470;20.968;105.834;2024-02-23T14:46:56;24.95;;;19.02;;
22606;SDS011;11470;20.968;105.834;2024-02-23T14:52:01;34.03;;;24.48;;
22606;SDS011;11470;20.968;105.834;2024-02-23T14:57:06;22.67;;;10.52;;
22606;SDS011;11470;20.968;105.834;2024-02-23T15:02:22;29.67;;;20.58;;
22606;SDS011;11470;20.968;105.834;2024-02-23T15:07:27;37.87;;;23.23;;
22606;SDS011;11470;20.968;105.834;2024-02-23T15:12:32;21.00;;;12.45;;
22606;SDS011;11470;20.968;105.834;2024-02-23T15:17:38;30.30;;;22.17;;
22606;SDS011;11470;20.968;105.834;2024-02-23T15:22:46;35.83;;;17.75;;
22606;SDS011;11470;20.968;105.834;2024-02-23T15:27:53;28.17;;;18.95;;
22606;SDS011;11470;20.968;105.834;2024-02-23T15:33:01;27.55;;;18.48;;
22606;SDS011;11470;20.968;105.834;2024-02-23T15:38:07;27.65;;;19.90;;
22606;SDS011;11470;20.968;105.834;2024-02-23T15:43:12;21.42;;;15.55;;
22606;SDS011;11470;20.968;105.834;2024-02-23T15:48:17;18.93;;;11.87;;
22606;SDS011;11470;20.968;105.834;2024-02-23T15:53:22;25.83;;;18.33;;
22606;SDS011;11470;20.968;105.834;2024-02-23T15:58:29;21.27;;;15.80;;
22606;SDS011;11470;20.968;105.834;2024-02-23T16:03:33;25.02;;;17.08;;
22606;SDS011;11470;20.968;105.834;2024-02-23T16:08:39;23.98;;;16.83;;
22606;SDS011;11470;20.968;105.834;2024-02-23T16:13:49;26.30;;;18.38;;
22606;SDS011;11470;20.968;105.834;2024-02-23T16:18:57;24.15;;;16.17;;
22606;SDS011;11470;20.968;105.834;2024-02-23T16:24:02;24.80;;;15.43;;
22606;SDS011;11470;20.968;105.834;2024-02-23T16:29:09;18.52;;;13.35;;
22606;SDS011;11470;20.968;105.834;2024-02-23T16:34:15;22.00;;;15.27;;
22606;SDS011;11470;20.968;105.834;2024-02-23T16:39:20;19.05;;;13.90;;
22606;SDS011;11470;20.968;105.834;2024-02-23T16:44:25;22.60;;;14.57;;
22606;SDS011;11470;20.968;105.834;2024-02-23T16:49:30;18.98;;;12.23;;
22606;SDS011;11470;20.968;105.834;2024-02-23T16:54:37;17.35;;;12.32;;
22606;SDS011;11470;20.968;105.834;2024-02-23T16:59:44;17.90;;;13.23;;
22606;SDS011;11470;20.968;105.834;2024-02-23T17:04:48;13.20;;;10.18;;
22606;SDS011;11470;20.968;105.834;2024-02-23T17:09:53;16.33;;;12.73;;
22606;SDS011;11470;20.968;105.834;2024-02-23T17:14:58;17.23;;;12.90;;
22606;SDS011;11470;20.968;105.834;2024-02-23T17:20:03;18.10;;;11.80;;
22606;SDS011;11470;20.968;105.834;2024-02-23T17:30:14;13.93;;;10.55;;
22606;SDS011;11470;20.968;105.834;2024-02-23T17:35:19;15.37;;;12.40;;
22606;SDS011;11470;20.968;105.834;2024-02-23T17:40:25;14.27;;;10.43;;
22606;SDS011;11470;20.968;105.834;2024-02-23T17:45:30;12.48;;;8.23;;
22606;SDS011;11470;20.968;105.834;2024-02-23T17:50:36;13.73;;;10.43;;
22606;SDS011;11470;20.968;105.834;2024-02-23T17:55:42;12.80;;;9.05;;
22606;SDS011;11470;20.968;105.834;2024-02-23T18:00:47;11.90;;;7.60;;
22606;SDS011;11470;20.968;105.834;2024-02-23T18:05:52;15.45;;;10.98;;
22606;SDS011;11470;20.968;105.834;2024-02-23T18:10:57;11.02;;;6.65;;
22606;SDS011;11470;20.968;105.834;2024-02-23T18:16:06;9.80;;;6.85;;
22606;SDS011;11470;20.968;105.834;2024-02-23T18:21:17;9.68;;;8.68;;
22606;SDS011;11470;20.968;105.834;2024-02-23T18:26:22;10.73;;;8.20;;
22606;SDS011;11470;20.968;105.834;2024-02-23T18:31:27;8.63;;;6.93;;
22606;SDS011;11470;20.968;105.834;2024-02-23T18:36:32;7.18;;;4.65;;
22606;SDS011;11470;20.968;105.834;2024-02-23T18:41:37;11.15;;;6.88;;
22606;SDS011;11470;20.968;105.834;2024-02-23T18:46:42;7.15;;;4.28;;
22606;SDS011;11470;20.968;105.834;2024-02-23T18:51:47;11.25;;;7.82;;
22606;SDS011;11470;20.968;105.834;2024-02-23T18:56:54;9.15;;;7.60;;
22606;SDS011;11470;20.968;105.834;2024-02-23T19:01:59;12.85;;;8.02;;
22606;SDS011;11470;20.968;105.834;2024-02-23T19:07:04;9.55;;;7.32;;
22606;SDS011;11470;20.968;105.834;2024-02-23T19:12:09;10.07;;;7.60;;
22606;SDS011;11470;20.968;105.834;2024-02-23T19:22:20;11.70;;;6.45;;
22606;SDS011;11470;20.968;105.834;2024-02-23T19:27:25;7.65;;;6.60;;
22606;SDS011;11470;20.968;105.834;2024-02-23T19:32:30;10.48;;;7.45;;
22606;SDS011;11470;20.968;105.834;2024-02-23T19:37:35;8.95;;;7.53;;
22606;SDS011;11470;20.968;105.834;2024-02-23T19:42:41;7.22;;;5.43;;
22606;SDS011;11470;20.968;105.834;2024-02-23T19:47:45;7.85;;;5.05;;
22606;SDS011;11470;20.968;105.834;2024-02-23T19:52:51;7.22;;;4.68;;
22606;SDS011;11470;20.968;105.834;2024-02-23T19:57:56;5.65;;;4.82;;
22606;SDS011;11470;20.968;105.834;2024-02-23T20:03:02;5.68;;;4.03;;
22606;SDS011;11470;20.968;105.834;2024-02-23T20:08:07;7.22;;;5.10;;
22606;SDS011;11470;20.968;105.834;2024-02-23T20:13:11;9.93;;;6.63;;
22606;SDS011;11470;20.968;105.834;2024-02-23T20:18:16;7.60;;;6.22;;
22606;SDS011;11470;20.968;105.834;2024-02-23T20:23:21;7.35;;;5.70;;
22606;SDS011;11470;20.968;105.834;2024-02-23T20:28:26;5.07;;;4.53;;
22606;SDS011;11470;20.968;105.834;2024-02-23T20:33:33;6.72;;;4.97;;
22606;SDS011;11470;20.968;105.834;2024-02-23T20:38:39;7.63;;;5.47;;
22606;SDS011;11470;20.968;105.834;2024-02-23T20:43:44;8.65;;;5.20;;
22606;SDS011;11470;20.968;105.834;2024-02-23T20:48:49;5.50;;;4.83;;
22606;SDS011;11470;20.968;105.834;2024-02-23T20:53:54;6.00;;;4.68;;
22606;SDS011;11470;20.968;105.834;2024-02-23T20:59:00;7.88;;;4.50;;
22606;SDS011;11470;20.968;105.834;2024-02-23T21:04:06;6.80;;;6.03;;
22606;SDS011;11470;20.968;105.834;2024-02-23T21:09:12;6.73;;;5.40;;
22606;SDS011;11470;20.968;105.834;2024-02-23T21:14:20;4.88;;;4.07;;
22606;SDS011;11470;20.968;105.834;2024-02-23T21:19:25;7.75;;;5.78;;
22606;SDS011;11470;20.968;105.834;2024-02-23T21:24:30;6.30;;;5.13;;
22606;SDS011;11470;20.968;105.834;2024-02-23T21:29:35;6.10;;;5.30;;
22606;SDS011;11470;20.968;105.834;2024-02-23T21:34:40;5.53;;;3.92;;
22606;SDS011;11470;20.968;105.834;2024-02-23T21:39:45;6.20;;;4.47;;
22606;SDS011;11470;20.968;105.834;2024-02-23T21:44:50;4.72;;;3.22;;
22606;SDS011;11470;20.968;105.834;2024-02-23T21:49:55;7.17;;;5.00;;
22606;SDS011;11470;20.968;105.834;2024-02-23T21:55:02;5.75;;;4.93;;
22606;SDS011;11470;20.968;105.834;2024-02-23T22:00:08;4.70;;;3.95;;
22606;SDS011;11470;20.968;105.834;2024-02-23T22:05:15;4.00;;;2.85;;
22606;SDS011;11470;20.968;105.834;2024-02-23T22:10:20;5.28;;;3.90;;
22606;SDS011;11470;20.968;105.834;2024-02-23T22:15:25;4.55;;;2.92;;
22606;SDS011;11470;20.968;105.834;2024-02-23T22:20:30;3.72;;;3.20;;
22606;SDS011;11470;20.968;105.834;2024-02-23T22:25:35;5.18;;;4.13;;
22606;SDS011;11470;20.968;105.834;2024-02-23T22:30:40;3.90;;;3.50;;
22606;SDS011;11470;20.968;105.834;2024-02-23T22:35:45;4.93;;;3.35;;
22606;SDS011;11470;20.968;105.834;2024-02-23T22:40:50;4.07;;;2.78;;
22606;SDS011;11470;20.968;105.834;2024-02-23T22:45:55;4.70;;;3.50;;
22606;SDS011;11470;20.968;105.834;2024-02-23T22:51:04;3.17;;;2.88;;
22606;SDS011;11470;20.968;105.834;2024-02-23T22:56:09;3.83;;;2.63;;
22606;SDS011;11470;20.968;105.834;2024-02-23T23:01:14;5.00;;;3.70;;
22606;SDS011;11470;20.968;105.834;2024-02-23T23:06:19;3.78;;;1.73;;
22606;SDS011;11470;20.968;105.834;2024-02-23T23:11:35;2.50;;;2.30;;
22606;SDS011;11470;20.968;105.834;2024-02-23T23:16:41;3.30;;;2.58;;
22606;SDS011;11470;20.968;105.834;2024-02-23T23:21:47;2.75;;;1.60;;
22606;SDS011;11470;20.968;105.834;2024-02-23T23:26:52;3.78;;;3.03;;
22606;SDS011;11470;20.968;105.834;2024-02-23T23:31:57;3.75;;;3.13;;
22606;SDS011;11470;20.968;105.834;2024-02-23T23:37:02;4.45;;;2.95;;
22606;SDS011;11470;20.968;105.834;2024-02-23T23:42:07;2.95;;;2.22;;
22606;SDS011;11470;20.968;105.834;2024-02-23T23:47:12;6.35;;;4.15;;
22606;SDS011;11470;20.968;105.834;2024-02-23T23:52:17;3.97;;;2.72;;
22606;SDS011;11470;20.968;105.834;2024-02-23T23:57:23;4.05;;;3.03;;
